Time;durP1;ratioP1;P1;durP2;ratioP2;P2;SDS_P1;SDS_P2;PMS_P1;PMS_P2;Temp;Humidity;BMP_temperature;BMP_pressure;BME280_temperature;BME280_humidity;BME280_pressure;Samples;Min_cycle;Max_cycle;Signal;HPM_P1;HPM_P2
2022/01/06 03:42:57;;;;;;;3.03;0.50;;;;;;;-1.83;74.98;100639.13;5402886;24;20056;-83
2022/01/06 03:45:23;;;;;;;3.05;0.60;;;;;;;-1.96;75.32;100632.19;4795945;30;20032;-83
2022/01/06 03:47:48;;;;;;;3.88;0.65;;;;;;;-1.83;75.55;100649.69;4796742;30;20031;-85
2022/01/06 03:50:15;;;;;;;4.43;0.60;;;;;;;-1.92;76.17;100654.75;4796028;30;20043;-85
2022/01/06 03:52:41;;;;;;;5.75;0.70;;;;;;;-2.05;76.40;100632.09;4796032;30;20084;-82
2022/01/06 03:55:08;;;;;;;7.07;0.65;;;;;;;-1.94;76.43;100663.72;4795831;30;20015;-83
2022/01/06 03:57:34;;;;;;;2.40;0.73;;;;;;;-1.96;76.61;100665.63;4805971;29;20167;-84
2022/01/06 04:00:01;;;;;;;3.92;0.80;;;;;;;-2.00;77.02;100667.69;4798578;29;20027;-84
2022/01/06 04:41:14;;;;;;;3.45;0.65;;;;;;;-3.81;80.65;100436.84;5429173;24;20080;-84
2022/01/06 04:43:40;;;;;;;2.72;0.52;;;;;;;-1.86;81.13;100734.31;4795474;30;20095;-84
2022/01/06 04:46:05;;;;;;;2.13;0.70;;;;;;;-1.84;81.61;100721.84;4764421;30;20043;-84
2022/01/06 04:48:31;;;;;;;2.40;0.50;;;;;;;-1.82;81.33;100730.47;4808335;29;20044;-84
2022/01/06 04:50:56;;;;;;;1.27;0.50;;;;;;;-1.83;80.37;100718.25;4809323;29;20031;-83
2022/01/06 04:53:22;;;;;;;2.10;0.35;;;;;;;-1.76;80.22;100725.53;4785809;29;20012;-84
2022/01/06 04:55:48;;;;;;;2.53;0.55;;;;;;;-1.81;80.55;100719.81;4791688;30;20040;-85
2022/01/06 04:58:14;;;;;;;3.97;0.50;;;;;;;-1.81;79.81;100722.44;4790555;29;20043;-84
2022/01/06 05:00:39;;;;;;;2.95;0.60;;;;;;;-1.85;79.24;100707.84;4776552;30;20033;-84
2022/01/06 05:03:04;;;;;;;2.95;0.50;;;;;;;-1.69;79.62;100745.22;4777633;30;20040;-84
2022/01/06 05:05:30;;;;;;;3.67;0.60;;;;;;;-1.72;79.50;100742.00;4791462;30;20080;-84
2022/01/06 05:07:55;;;;;;;3.03;0.60;;;;;;;-1.82;79.55;100722.56;4777056;30;20024;-82
2022/01/06 05:10:20;;;;;;;3.88;0.70;;;;;;;-1.79;79.90;100738.97;4777281;30;20040;-84
2022/01/06 05:12:46;;;;;;;3.53;0.60;;;;;;;-1.73;80.34;100751.69;4769929;30;20077;-84
2022/01/06 05:15:13;;;;;;;3.20;0.80;;;;;;;-1.72;80.51;100757.81;4809021;29;20016;-84
2022/01/06 05:17:40;;;;;;;3.83;0.55;;;;;;;-1.79;80.32;100767.16;4793653;30;20030;-84
2022/01/06 05:20:06;;;;;;;5.22;0.70;;;;;;;-1.85;79.59;100757.09;4778691;30;20021;-84
2022/01/06 05:22:33;;;;;;;4.50;0.68;;;;;;;-2.09;79.81;100721.13;4776647;30;20043;-84
2022/01/06 05:24:59;;;;;;;2.50;0.43;;;;;;;-1.88;79.10;100762.63;4776869;30;20080;-83
2022/01/06 05:27:24;;;;;;;3.45;0.50;;;;;;;-1.84;79.68;100775.44;4791627;30;20016;-84
2022/01/06 05:29:50;;;;;;;5.18;0.70;;;;;;;-2.06;80.31;100743.78;4789452;29;20027;-82
2022/01/06 05:32:15;;;;;;;3.13;0.52;;;;;;;-1.88;79.93;100781.91;4774776;30;20097;-83
2022/01/06 05:34:40;;;;;;;2.35;0.77;;;;;;;-2.00;80.65;100761.78;4776180;30;20028;-84
2022/01/06 05:37:06;;;;;;;1.60;0.52;;;;;;;-2.09;80.88;100750.13;4790693;30;20022;-83
2022/01/06 05:39:31;;;;;;;4.05;0.60;;;;;;;-2.01;80.71;100779.41;4791082;30;20027;-83
2022/01/06 05:41:57;;;;;;;2.58;0.50;;;;;;;-2.38;81.65;100734.78;4785057;29;20056;-84
2022/01/06 05:44:23;;;;;;;2.85;0.50;;;;;;;-2.19;81.59;100781.63;4758758;30;20032;-84
2022/01/06 05:46:49;;;;;;;3.83;0.65;;;;;;;-2.26;81.88;100792.75;4762711;30;20032;-84
2022/01/06 05:49:15;;;;;;;3.30;0.55;;;;;;;-2.49;82.22;100781.34;4790798;30;20020;-84
2022/01/06 06:04:36;;;;;;;3.22;0.75;;;;;;;-3.04;84.43;100791.53;5480186;24;20035;-84
2022/01/06 06:07:02;;;;;;;1.75;0.50;;;;;;;-3.13;84.68;100787.78;4814542;29;20046;-83
2022/01/06 06:09:28;;;;;;;8.38;0.70;;;;;;;-3.20;85.12;100788.34;4829324;29;20033;-84
2022/01/06 06:11:53;;;;;;;1.65;0.40;;;;;;;-3.11;84.93;100821.91;4829650;29;20046;-83
2022/01/06 06:14:18;;;;;;;2.80;0.60;;;;;;;-3.18;85.07;100826.75;4826440;29;20075;-83
2022/01/06 06:16:44;;;;;;;4.63;0.50;;;;;;;-3.23;85.66;100828.03;4812792;29;20039;-82
2022/01/06 06:19:09;;;;;;;2.03;0.45;;;;;;;-3.33;85.68;100819.94;4828009;29;20027;-85
2022/01/06 06:21:35;;;;;;;3.75;0.63;;;;;;;-3.32;85.63;100833.00;4827138;29;20042;-83
2022/01/06 06:24:00;;;;;;;2.70;0.38;;;;;;;-3.89;85.90;100753.78;4810813;29;20024;-84
2022/01/06 06:26:25;;;;;;;1.90;0.45;;;;;;;-3.43;85.83;100837.34;4820071;29;20007;-84
2022/01/06 06:28:51;;;;;;;6.30;0.70;;;;;;;-3.68;86.03;100804.03;4814300;29;20046;-84
2022/01/06 06:31:16;;;;;;;3.28;0.60;;;;;;;-3.55;86.21;100842.50;4813424;29;20015;-82
2022/01/06 06:33:42;;;;;;;2.83;0.57;;;;;;;-3.82;86.32;100813.72;4828006;29;20056;-81
2022/01/06 06:36:07;;;;;;;5.18;0.75;;;;;;;-3.73;86.97;100835.06;4828775;29;20042;-83
2022/01/06 06:38:33;;;;;;;3.08;0.60;;;;;;;-3.97;86.69;100809.53;4829149;29;20023;-83
2022/01/06 06:40:58;;;;;;;6.63;0.70;;;;;;;-3.72;87.15;100858.63;4829327;29;20046;-83
2022/01/06 06:43:23;;;;;;;0.82;0.40;;;;;;;-3.77;87.50;100844.97;4826705;29;20026;-81
2022/01/06 06:45:49;;;;;;;2.85;0.55;;;;;;;-3.88;87.25;100836.97;4829564;29;20038;-83
2022/01/06 06:48:15;;;;;;;4.03;0.50;;;;;;;-3.75;87.61;100863.25;4828760;29;20090;-84
2022/01/06 06:50:40;;;;;;;3.65;0.73;;;;;;;-3.74;87.54;100859.66;4814570;29;20035;-83
2022/01/06 06:53:07;;;;;;;3.88;0.57;;;;;;;-3.69;87.68;100865.47;4829295;29;20052;-83
2022/01/06 06:55:33;;;;;;;3.42;0.60;;;;;;;-3.68;87.83;100872.38;4829269;29;20049;-84
2022/01/06 06:57:58;;;;;;;2.65;0.70;;;;;;;-3.93;87.89;100833.81;4828668;29;20019;-84
2022/01/06 07:00:24;;;;;;;4.45;0.50;;;;;;;-3.66;87.93;100873.13;4828583;29;20041;-83
2022/01/06 07:25:07;;;;;;;4.72;0.50;;;;;;;-5.55;89.26;100716.78;5512801;24;20055;-81
2022/01/06 07:27:33;;;;;;;2.30;0.52;;;;;;;-6.19;89.55;100602.06;4793737;30;20099;-81
2022/01/06 07:32:30;;;;;;;3.45;0.70;;;;;;;-4.22;89.36;100917.25;4800329;30;20059;-80
2022/01/06 07:34:55;;;;;;;1.67;0.52;;;;;;;-4.10;90.02;100940.09;4809405;29;20132;-82
2022/01/06 07:37:21;;;;;;;3.92;0.95;;;;;;;-4.14;89.84;100944.72;4812401;29;20016;-83
2022/01/06 07:50:07;;;;;;;1.48;0.50;;;;;;;-5.39;89.97;100775.19;5061770;24;20034;-81
2022/01/06 07:52:33;;;;;;;2.30;0.68;;;;;;;-4.30;90.07;100936.16;5263041;24;20107;-83
2022/01/06 07:54:58;;;;;;;2.58;0.57;;;;;;;-4.21;90.06;100955.69;4794723;29;20054;-84
2022/01/06 08:02:34;;;;;;;1.90;0.45;;;;;;;-5.49;90.34;100774.09;5408500;24;20035;-83
2022/01/06 08:04:59;;;;;;;3.20;0.47;;;;;;;-5.38;90.38;100781.28;4828867;29;20090;-85
2022/01/06 08:07:25;;;;;;;2.30;0.50;;;;;;;-6.07;90.27;100676.41;4829348;29;20027;-84
2022/01/06 08:09:50;;;;;;;2.00;0.50;;;;;;;-4.03;90.49;100992.13;4830995;29;20023;-83
2022/01/06 08:19:59;;;;;;;3.40;0.50;;;;;;;-5.69;90.00;100742.09;4812526;29;20065;-84
2022/01/06 08:22:24;;;;;;;1.80;0.50;;;;;;;-5.85;90.40;100736.13;4807367;29;20050;-84
2022/01/06 08:30:00;;;;;;;2.25;0.38;;;;;;;-4.04;90.71;101015.88;5231110;24;20046;-82
2022/01/06 08:32:26;;;;;;;2.72;0.50;;;;;;;-4.07;90.91;101021.34;4851609;29;20045;-83
2022/01/06 08:34:51;;;;;;;1.00;0.50;;;;;;;-4.30;90.70;100986.91;4826524;29;20819;-81
2022/01/06 08:37:17;;;;;;;1.70;0.68;;;;;;;-4.26;90.65;100996.25;4812722;29;20035;-81
2022/01/06 08:39:42;;;;;;;1.95;0.60;;;;;;;-4.22;90.88;101004.78;4841336;29;20031;-81
2022/01/06 08:42:08;;;;;;;2.65;0.55;;;;;;;-4.27;91.06;101007.72;4818656;29;20031;-81
2022/01/06 08:44:35;;;;;;;3.58;0.60;;;;;;;-4.13;91.09;101019.13;4809078;29;20087;-81
2022/01/06 08:47:01;;;;;;;2.22;0.60;;;;;;;-4.31;91.18;100995.69;4808773;29;20035;-81
2022/01/06 08:49:29;;;;;;;1.27;0.30;;;;;;;-4.10;91.19;101021.56;4822440;29;20046;-81
2022/01/06 08:51:55;;;;;;;10.68;2.85;;;;;;;-4.12;91.27;101018.16;4821621;29;20045;-79
2022/01/06 08:54:20;;;;;;;11.80;4.88;;;;;;;-4.45;91.60;100995.75;4821115;29;20118;-78
2022/01/06 08:56:45;;;;;;;6.50;3.05;;;;;;;-4.29;91.60;101029.75;4812427;29;20038;-80
2022/01/06 08:59:11;;;;;;;23.85;9.90;;;;;;;-4.21;91.66;101031.88;4813587;29;20039;-82
2022/01/06 09:01:36;;;;;;;7.75;2.53;;;;;;;-4.14;91.54;101038.44;4817212;29;20049;-83
2022/01/06 09:04:02;;;;;;;4.10;1.00;;;;;;;-4.12;91.49;101031.31;4824006;29;20050;-82
2022/01/06 09:06:28;;;;;;;3.20;0.98;;;;;;;-4.13;91.45;101005.97;4823896;29;20041;-83
2022/01/06 09:08:53;;;;;;;4.32;1.30;;;;;;;-3.90;91.18;101022.88;4824611;29;20099;-83
2022/01/06 09:11:19;;;;;;;4.97;1.17;;;;;;;-4.17;90.96;100986.94;4825350;29;20027;-83
2022/01/06 09:13:44;;;;;;;2.45;0.95;;;;;;;-3.86;91.01;101032.25;4811943;29;20035;-82
2022/01/06 09:16:10;;;;;;;6.72;1.83;;;;;;;-3.79;90.97;101033.53;4802463;30;20065;-82
2022/01/06 09:18:37;;;;;;;2.42;1.00;;;;;;;-3.86;91.28;101027.81;4802773;29;20035;-82
2022/01/06 09:21:03;;;;;;;1.55;0.70;;;;;;;-3.90;91.19;101004.47;4801655;30;20485;-83
2022/01/06 09:23:29;;;;;;;5.72;1.35;;;;;;;-3.73;90.91;101017.34;4818653;29;20455;-83
2022/01/06 09:25:54;;;;;;;3.00;0.95;;;;;;;-3.74;90.80;101001.66;4819297;29;20096;-82
2022/01/06 09:28:20;;;;;;;3.53;1.90;;;;;;;-3.53;90.70;101029.16;4815171;29;20049;-82
2022/01/06 09:30:45;;;;;;;8.18;1.40;;;;;;;-3.56;90.52;101014.41;4808842;29;20058;-81
2022/01/06 09:33:11;;;;;;;4.78;0.90;;;;;;;-3.40;90.30;101040.53;4807372;29;20038;-81
2022/01/06 09:35:36;;;;;;;2.58;0.57;;;;;;;-3.38;90.14;101043.06;4804578;29;20031;-80
2022/01/06 09:38:03;;;;;;;6.97;0.80;;;;;;;-3.47;89.97;101005.06;4805959;29;20034;-80
2022/01/06 09:40:29;;;;;;;2.80;0.70;;;;;;;-3.39;89.91;101010.66;4791060;29;20107;-80
2022/01/06 09:42:55;;;;;;;3.53;1.90;;;;;;;-3.25;90.04;101040.44;4805284;29;20454;-80
2022/01/06 09:45:25;;;;;;;5.15;2.70;;;;;;;-3.47;89.92;100996.34;4807184;29;20051;-80
2022/01/06 09:47:51;;;;;;;2.33;1.30;;;;;;;-3.19;89.80;101034.75;4803840;29;20099;-80
2022/01/06 09:50:16;;;;;;;8.40;4.50;;;;;;;-3.07;89.58;101032.13;4803903;29;20034;-79
2022/01/06 09:52:41;;;;;;;3.90;2.15;;;;;;;-3.05;89.17;101034.66;4802427;29;20038;-80
2022/01/06 09:55:08;;;;;;;1.40;0.70;;;;;;;-3.05;89.57;101018.84;4800054;29;20453;-80
2022/01/06 09:57:33;;;;;;;2.95;0.70;;;;;;;-2.95;89.33;101021.69;4801152;29;20022;-80
2022/01/06 10:00:00;;;;;;;3.13;0.75;;;;;;;-2.77;89.35;101038.84;4828410;29;20111;-80
2022/01/06 10:02:37;;;;;;;1.65;1.00;;;;;;;-2.86;89.22;101023.69;4806859;29;20106;-80
2022/01/06 10:05:04;;;;;;;2.40;1.90;;;;;;;-2.66;88.80;101046.00;4804042;29;20039;-81
2022/01/06 10:07:40;;;;;;;3.50;1.88;;;;;;;-2.63;88.83;101051.06;4806885;29;20034;-80
2022/01/06 10:10:08;;;;;;;1.90;0.77;;;;;;;-2.72;88.80;101041.16;4806663;29;20034;-81
2022/01/06 10:12:35;;;;;;;13.05;1.00;;;;;;;-2.61;89.00;101043.91;4802726;29;20050;-81
2022/01/06 10:15:00;;;;;;;1.98;0.57;;;;;;;-2.48;88.79;101052.63;4806994;29;20031;-81
2022/01/06 10:17:31;;;;;;;2.45;0.68;;;;;;;-2.37;88.89;101062.38;4807272;29;20045;-81
2022/01/06 10:20:08;;;;;;;1.50;0.60;;;;;;;-2.31;88.63;101061.13;4821636;29;20011;-83
2022/01/06 10:25:09;;;;;;;3.92;1.35;;;;;;;-2.62;88.82;101024.63;5487736;24;20050;-82
2022/01/06 10:27:34;;;;;;;5.25;1.25;;;;;;;-3.51;88.34;100868.59;4814366;29;20076;-82
2022/01/06 10:30:06;;;;;;;2.95;1.00;;;;;;;-3.21;87.96;100898.03;4802873;30;20133;-83
2022/01/06 10:32:32;;;;;;;5.43;1.40;;;;;;;-4.10;88.35;100767.50;4801517;29;20027;-82
2022/01/06 10:35:02;;;;;;;3.25;1.23;;;;;;;-2.29;88.58;101038.94;4816401;29;20035;-83
2022/01/06 10:37:34;;;;;;;3.67;0.90;;;;;;;-1.98;88.39;101077.13;4819934;29;20056;-83
2022/01/06 10:40:04;;;;;;;2.33;1.00;;;;;;;-2.64;87.69;100959.81;4967781;24;20117;-80
2022/01/06 10:42:33;;;;;;;2.25;0.90;;;;;;;-3.08;87.50;100876.91;4785126;30;20151;-80
2022/01/06 10:45:05;;;;;;;2.97;0.85;;;;;;;-2.07;87.64;101040.88;4799016;30;20042;-82
2022/01/06 10:47:35;;;;;;;4.07;0.90;;;;;;;-1.95;87.59;101063.72;4791631;30;20083;-80
2022/01/06 10:50:16;;;;;;;3.40;1.00;;;;;;;-1.78;87.75;101078.31;4789361;30;20164;-79
2022/01/06 10:53:04;;;;;;;2.15;0.55;;;;;;;-1.82;87.46;101062.81;4789702;30;20087;-82
2022/01/06 10:55:35;;;;;;;2.20;0.80;;;;;;;-1.71;87.51;101076.06;4791184;30;20027;-84
2022/01/06 10:58:08;;;;;;;2.03;0.70;;;;;;;-1.50;87.22;101094.72;4797795;29;20032;-83
2022/01/06 11:00:36;;;;;;;2.10;0.60;;;;;;;-1.47;86.84;101086.59;4787232;30;20043;-82
2022/01/06 11:03:12;;;;;;;6.75;1.00;;;;;;;-1.40;86.97;101089.59;4784579;30;20055;-82
2022/01/06 11:05:40;;;;;;;2.97;0.88;;;;;;;-1.52;86.29;101057.91;4785475;30;20092;-84
2022/01/06 11:08:07;;;;;;;1.38;0.73;;;;;;;-1.33;85.91;101070.53;4783807;30;20023;-84
2022/01/06 11:10:36;;;;;;;4.90;0.70;;;;;;;-1.13;85.10;101084.03;4785641;30;20036;-84
2022/01/06 11:13:02;;;;;;;4.15;0.68;;;;;;;-1.25;84.95;101062.06;4786232;30;20035;-85
2022/01/06 11:15:27;;;;;;;1.65;0.60;;;;;;;-1.14;84.88;101048.03;4792258;30;20051;-84
2022/01/06 11:17:53;;;;;;;3.15;0.88;;;;;;;-0.95;84.55;101074.72;4787949;30;20100;-83
2022/01/06 11:20:24;;;;;;;2.70;0.70;;;;;;;-0.86;84.57;101081.94;4807803;29;20044;-81
2022/01/06 11:22:52;;;;;;;1.80;0.70;;;;;;;-0.85;84.34;101082.78;4791410;30;20038;-85
2022/01/06 11:25:29;;;;;;;2.33;0.93;;;;;;;-2.17;83.94;100869.34;4907313;24;20772;-83
2022/01/06 11:28:02;;;;;;;2.08;0.77;;;;;;;-2.94;83.83;100762.75;4807300;29;20039;-83
2022/01/06 11:30:40;;;;;;;3.40;0.88;;;;;;;-2.15;83.40;100885.06;4806215;29;20031;-80
2022/01/06 11:33:06;;;;;;;1.35;0.70;;;;;;;-1.48;82.51;100989.91;4795287;29;20027;-84
2022/01/06 11:35:46;;;;;;;4.18;0.73;;;;;;;-0.67;81.56;101093.72;4799257;29;20038;-82
2022/01/06 11:38:12;;;;;;;3.30;0.70;;;;;;;-0.56;80.73;101106.94;4802141;29;20103;-83
2022/01/06 11:40:40;;;;;;;4.25;0.80;;;;;;;-0.49;79.54;101108.16;4797648;29;20455;-81
2022/01/06 11:43:06;;;;;;;1.25;0.60;;;;;;;-0.38;79.30;101112.59;4803723;30;20434;-82
2022/01/06 11:45:31;;;;;;;2.03;0.80;;;;;;;-0.30;77.51;101107.53;4810692;29;20024;-84
2022/01/06 11:48:03;;;;;;;2.13;1.00;;;;;;;-0.35;78.46;101073.53;4792930;30;20039;-83
2022/01/06 11:50:28;;;;;;;2.58;0.88;;;;;;;-0.38;77.72;101067.63;4812071;29;20088;-83
2022/01/06 11:53:00;;;;;;;3.22;0.60;;;;;;;-0.18;77.78;101095.13;4808654;29;20043;-82
2022/01/06 11:55:33;;;;;;;4.50;0.90;;;;;;;-0.14;77.77;101096.56;4804732;29;20023;-84
2022/01/06 11:58:08;;;;;;;3.35;0.80;;;;;;;-0.20;77.87;101087.31;4805840;30;20036;-85
2022/01/06 12:00:35;;;;;;;;;;;;;;;-0.16;76.74;101088.78;4810301;29;20037;-84
2022/01/06 12:03:13;;;;;;;3.55;1.00;;;;;;;-0.18;78.91;101095.97;4802815;29;19921;-83
2022/01/06 12:05:44;;;;;;;3.78;1.20;;;;;;;-0.26;79.45;101093.94;4795110;29;20039;-81
2022/01/06 12:08:10;;;;;;;4.85;1.30;;;;;;;-0.31;79.71;101096.09;4792589;29;20530;-80
2022/01/06 12:10:41;;;;;;;2.63;0.95;;;;;;;-0.39;80.01;101090.59;4789242;30;20039;-84
2022/01/06 12:13:06;;;;;;;5.20;1.00;;;;;;;-0.44;79.05;101084.81;4816558;29;20015;-84
2022/01/06 12:15:32;;;;;;;4.55;1.40;;;;;;;-0.31;78.76;101101.41;4809387;29;20617;-84
2022/01/06 12:17:59;;;;;;;3.45;1.02;;;;;;;-0.55;79.09;101055.75;4800841;29;20059;-81
2022/01/06 12:20:29;;;;;;;6.38;1.70;;;;;;;-0.52;79.14;101074.03;4773748;30;20035;-81
2022/01/06 12:22:55;;;;;;;4.20;1.60;;;;;;;-0.38;79.43;101097.56;4791055;29;20087;-81
2022/01/06 12:25:25;;;;;;;2.72;1.02;;;;;;;-0.45;79.41;101083.16;4793146;29;20136;-80
2022/01/06 12:27:55;;;;;;;6.82;4.28;;;;;;;-0.48;79.44;101080.75;4791985;29;20115;-82
2022/01/06 12:30:23;;;;;;;7.30;4.63;;;;;;;-0.68;79.09;101047.94;4795271;29;20427;-80
2022/01/06 12:32:57;;;;;;;12.82;6.30;;;;;;;-0.39;79.26;101092.41;4793064;30;20061;-81
2022/01/06 12:35:49;;;;;;;14.77;4.50;;;;;;;-0.47;79.51;101082.41;4795381;29;20023;-84
2022/01/06 12:38:22;;;;;;;11.05;4.75;;;;;;;-0.57;79.95;101082.28;4808672;29;20035;-83
2022/01/06 12:40:48;;;;;;;10.82;4.60;;;;;;;-0.68;80.35;101089.41;4802229;30;20046;-82
2022/01/06 12:43:24;;;;;;;9.10;2.88;;;;;;;-0.76;81.28;101084.72;4803889;30;20114;-83
2022/01/06 12:46:07;;;;;;;4.40;1.20;;;;;;;-0.78;81.43;101083.97;4816050;29;20024;-83
2022/01/06 12:48:38;;;;;;;6.97;1.50;;;;;;;-0.80;81.43;101083.25;4803556;30;20045;-84
2022/01/06 12:51:04;;;;;;;2.65;1.08;;;;;;;-0.75;80.90;101081.09;4801961;29;20069;-83
2022/01/06 12:53:35;;;;;;;5.00;1.73;;;;;;;-0.79;80.77;101069.09;4801698;30;20012;-83
2022/01/06 12:56:00;;;;;;;8.32;1.70;;;;;;;-0.90;80.94;101056.69;4801886;30;20050;-83
2022/01/06 12:58:37;;;;;;;5.43;2.28;;;;;;;-0.78;81.11;101073.41;4798749;30;20519;-83
2022/01/06 13:01:09;;;;;;;13.23;4.47;;;;;;;-0.79;81.12;101075.22;4794036;30;20056;-83
2022/01/06 13:03:40;;;;;;;6.38;2.70;;;;;;;-0.79;80.96;101075.22;4807902;29;20044;-83
2022/01/06 13:06:12;;;;;;;6.38;1.67;;;;;;;-0.78;80.73;101076.91;4807205;29;20080;-82
2022/01/06 13:08:51;;;;;;;8.15;1.80;;;;;;;-0.78;80.00;101070.78;4808024;29;20052;-82
2022/01/06 13:11:22;;;;;;;9.15;3.50;;;;;;;-0.90;80.34;101055.88;4801615;30;20038;-83
2022/01/06 13:13:56;;;;;;;7.15;3.00;;;;;;;-0.82;80.28;101078.09;4807182;29;20007;-82
2022/01/06 13:16:24;;;;;;;11.25;3.60;;;;;;;-1.12;79.77;101025.84;4806371;29;20046;-83
2022/01/06 13:19:00;;;;;;;18.20;6.90;;;;;;;-0.87;79.82;101063.56;4807198;29;20027;-83
2022/01/06 13:21:28;;;;;;;18.83;7.22;;;;;;;-0.81;79.48;101073.66;4803974;29;20083;-83
2022/01/06 13:23:56;;;;;;;17.15;6.85;;;;;;;-0.84;79.85;101068.59;4801097;29;20065;-83
2022/01/06 13:26:23;;;;;;;16.35;7.00;;;;;;;-0.99;79.85;101042.44;4800434;29;20055;-83
2022/01/06 13:28:56;;;;;;;11.93;5.07;;;;;;;-0.99;79.50;101047.72;4804631;30;20011;-83
2022/01/06 13:31:23;;;;;;;11.63;5.60;;;;;;;-0.97;79.26;101053.69;4806379;29;20474;-82
2022/01/06 13:33:57;;;;;;;8.93;4.20;;;;;;;-0.95;79.57;101059.72;4802625;30;20023;-81
2022/01/06 13:36:28;;;;;;;9.82;4.35;;;;;;;-1.10;79.80;101041.56;4797959;29;20027;-84
2022/01/06 13:39:05;;;;;;;5.18;2.67;;;;;;;-1.12;79.84;101046.13;4801044;29;20031;-83
2022/01/06 13:41:30;;;;;;;5.30;2.20;;;;;;;-1.43;79.86;101014.97;4802753;30;20031;-83
2022/01/06 13:43:58;;;;;;;3.88;1.30;;;;;;;-1.19;79.89;101053.69;4800213;30;20355;-82
2022/01/06 13:46:24;;;;;;;4.43;1.40;;;;;;;-1.33;80.52;101045.94;4801319;30;20033;-82
2022/01/06 13:51:04;;;;;;;4.55;1.77;;;;;;;-1.36;80.90;101065.50;4782594;30;20100;-82
2022/01/06 13:51:36;;;;;;;2.90;1.80;;;;;;;-1.55;81.60;101066.06;4800406;30;20039;-83
2022/01/06 13:54:09;;;;;;;4.75;1.90;;;;;;;-1.64;82.10;101073.81;4796828;29;20067;-83
2022/01/06 13:56:35;;;;;;;3.90;1.20;;;;;;;-1.80;82.06;101051.19;4795763;30;20537;-82
2022/01/06 13:59:09;;;;;;;5.75;1.25;;;;;;;-1.96;82.49;101035.66;4796417;29;20031;-82
2022/01/06 14:01:37;;;;;;;3.42;1.90;;;;;;;-1.78;82.83;101072.19;4798990;30;20027;-83
2022/01/06 14:04:05;;;;;;;3.90;1.70;;;;;;;-1.78;83.24;101075.66;4799574;30;20047;-83
2022/01/06 14:06:30;;;;;;;6.05;1.85;;;;;;;-1.95;83.04;101053.16;4799142;29;20027;-81
2022/01/06 14:08:56;;;;;;;5.97;1.77;;;;;;;-1.90;83.39;101066.00;4796003;29;20106;-82
2022/01/06 14:11:25;;;;;;;4.55;2.30;;;;;;;-2.01;84.06;101061.53;4802336;29;20047;-83
2022/01/06 14:13:50;;;;;;;5.03;2.10;;;;;;;-2.04;84.26;101068.81;4799012;29;20019;-83
2022/01/06 14:16:17;;;;;;;5.90;1.80;;;;;;;-2.13;84.83;101065.88;4794698;30;20023;-82
2022/01/06 14:18:43;;;;;;;7.90;2.28;;;;;;;-2.19;85.32;101063.69;4783701;30;20046;-82
2022/01/06 14:21:08;;;;;;;6.55;2.65;;;;;;;-2.27;85.08;101068.69;4759185;30;20027;-81
2022/01/06 14:23:36;;;;;;;5.72;2.40;;;;;;;-2.34;85.81;101064.81;4792963;30;20059;-81
2022/01/06 14:26:04;;;;;;;16.40;4.10;;;;;;;-2.37;85.92;101065.84;4794660;30;20063;-80
2022/01/06 14:28:30;;;;;;;8.93;3.25;;;;;;;-2.53;85.94;101046.81;4798570;29;20636;-83
2022/01/06 14:30:57;;;;;;;6.35;2.67;;;;;;;-2.58;86.24;101041.03;4802811;29;20015;-82
2022/01/06 14:33:25;;;;;;;7.75;2.10;;;;;;;-2.47;86.24;101066.63;4799730;30;20039;-83
2022/01/06 14:35:52;;;;;;;17.98;2.10;;;;;;;-2.46;86.30;101061.22;4800449;30;20024;-83
2022/01/06 14:38:17;;;;;;;5.75;1.70;;;;;;;-2.46;86.77;101063.03;4802665;30;20046;-82
2022/01/06 14:40:43;;;;;;;5.53;1.98;;;;;;;-2.58;86.80;101054.22;4804468;29;20038;-83
2022/01/06 14:43:08;;;;;;;11.82;2.75;;;;;;;-2.89;87.08;100990.50;4801440;30;20035;-83
2022/01/06 14:45:34;;;;;;;8.38;2.80;;;;;;;-2.54;86.82;101055.69;4786713;30;20039;-83
2022/01/06 14:48:00;;;;;;;11.27;2.92;;;;;;;-2.90;86.79;101004.63;4797516;29;20031;-83
2022/01/06 14:50:26;;;;;;;9.20;4.07;;;;;;;-2.75;87.15;101041.38;4782059;30;20031;-83
2022/01/06 14:52:51;;;;;;;9.30;4.68;;;;;;;-2.65;86.87;101063.47;4799176;30;20031;-83
2022/01/06 14:55:17;;;;;;;12.30;3.90;;;;;;;-2.74;87.11;101048.34;4799096;30;20446;-81
2022/01/06 14:57:42;;;;;;;10.55;3.97;;;;;;;-2.81;87.18;101041.78;4778905;30;20470;-82
2022/01/06 15:00:13;;;;;;;11.63;4.25;;;;;;;-2.72;86.98;101060.44;4791376;30;20035;-81
2022/01/06 15:02:43;;;;;;;12.35;4.32;;;;;;;-2.79;87.55;101061.81;4786638;30;20518;-81
2022/01/06 15:05:09;;;;;;;8.20;4.30;;;;;;;-2.93;87.52;101060.13;4789514;29;20031;-82
2022/01/06 15:07:34;;;;;;;9.98;3.70;;;;;;;-2.96;88.20;101070.88;4786236;30;20122;-80
2022/01/06 15:10:00;;;;;;;12.60;4.03;;;;;;;-3.08;88.44;101083.09;4786293;29;20130;-81
2022/01/06 15:12:26;;;;;;;13.98;6.53;;;;;;;-3.38;88.36;101032.53;4788489;30;20100;-81
2022/01/06 15:14:51;;;;;;;26.23;13.32;;;;;;;-3.22;88.81;101070.03;4792367;30;20039;-82
2022/01/06 15:17:17;;;;;;;26.63;15.07;;;;;;;-3.26;89.26;101068.56;4773549;30;20035;-83
2022/01/06 15:19:42;;;;;;;14.10;8.27;;;;;;;-3.33;88.97;101072.53;4795150;30;20044;-84
2022/01/06 15:22:08;;;;;;;14.15;5.95;;;;;;;-3.39;89.24;101073.78;4789915;30;20103;-82
2022/01/06 15:24:33;;;;;;;13.52;4.55;;;;;;;-3.45;89.53;101074.19;4799473;29;20130;-79
2022/01/06 15:26:58;;;;;;;12.48;4.90;;;;;;;-3.82;89.98;101023.19;4803668;30;20023;-83
2022/01/06 15:29:24;;;;;;;9.10;3.75;;;;;;;-3.55;90.34;101067.88;4808871;29;20035;-82
2022/01/06 15:31:49;;;;;;;6.75;3.00;;;;;;;-3.57;90.41;101078.50;4815629;29;20067;-83
2022/01/06 15:34:15;;;;;;;11.93;2.70;;;;;;;-3.63;90.76;101076.28;4799497;29;20028;-83
2022/01/06 15:36:40;;;;;;;12.00;2.65;;;;;;;-3.83;90.84;101051.28;4797655;30;20035;-82
2022/01/06 15:39:06;;;;;;;7.43;2.80;;;;;;;-3.66;91.16;101067.75;4801938;29;20035;-81
2022/01/06 15:41:33;;;;;;;8.90;2.38;;;;;;;-3.69;90.82;101068.78;4800587;29;20065;-82
2022/01/06 15:43:59;;;;;;;22.08;3.42;;;;;;;-3.79;91.02;101052.75;4799806;29;20036;-82
2022/01/06 15:46:26;;;;;;;7.30;3.17;;;;;;;-3.70;91.09;101064.47;4801114;29;20618;-82
2022/01/06 15:48:51;;;;;;;10.32;3.75;;;;;;;-3.87;91.12;101036.66;4794563;29;20027;-81
2022/01/06 15:51:20;;;;;;;13.02;3.30;;;;;;;-3.85;91.25;101040.00;4794820;29;20046;-82
2022/01/06 15:53:49;;;;;;;11.70;3.05;;;;;;;-3.62;91.26;101059.53;4796105;30;20082;-81
2022/01/06 15:56:15;;;;;;;20.77;3.08;;;;;;;-3.87;91.39;101025.31;4790487;30;20093;-81
2022/01/06 15:58:42;;;;;;;9.90;4.20;;;;;;;-3.62;91.46;101061.31;4791145;29;20126;-80
2022/01/06 16:06:36;;;;;;;14.25;7.38;;;;;;;-3.75;91.46;101034.16;4779560;30;20375;-82
2022/01/06 16:09:01;;;;;;;30.83;9.63;;;;;;;-3.66;91.14;101050.16;4776293;30;20027;-80
2022/01/06 16:11:26;;;;;;;15.35;7.32;;;;;;;-3.95;91.34;101004.75;4784729;30;20034;-82
2022/01/06 16:13:52;;;;;;;14.52;6.10;;;;;;;-3.79;91.28;101023.00;4770958;30;20043;-81
2022/01/06 16:16:18;;;;;;;15.85;6.43;;;;;;;-3.55;91.27;101057.34;4801994;30;20071;-83
2022/01/06 16:18:43;;;;;;;18.23;7.05;;;;;;;-3.72;90.75;101031.31;4793317;30;20064;-81
2022/01/06 16:21:09;;;;;;;16.70;7.85;;;;;;;-3.66;91.13;101033.56;4801863;29;20031;-82
2022/01/06 16:23:35;;;;;;;15.10;6.10;;;;;;;-3.54;91.00;101059.03;4800937;30;20035;-83
2022/01/06 16:26:00;;;;;;;10.82;4.55;;;;;;;-3.49;91.20;101061.38;4802527;30;20063;-80
2022/01/06 16:28:26;;;;;;;8.02;3.20;;;;;;;-3.61;90.79;101029.69;4801642;30;20039;-84
2022/01/06 16:30:57;;;;;;;12.48;3.30;;;;;;;-3.41;90.61;101056.41;4808840;29;20035;-81
2022/01/06 16:33:24;;;;;;;11.18;3.40;;;;;;;-3.39;90.81;101055.38;4818993;29;20058;-83
2022/01/06 16:35:51;;;;;;;8.43;3.10;;;;;;;-3.35;90.72;101061.28;4791386;29;20040;-82
2022/01/06 16:38:18;;;;;;;11.65;2.60;;;;;;;-3.40;90.60;101051.06;4793075;30;20034;-81
2022/01/06 16:40:45;;;;;;;4.90;2.47;;;;;;;-3.39;90.53;101044.00;4792743;29;20482;-82
2022/01/06 16:43:11;;;;;;;7.63;2.95;;;;;;;-3.32;90.42;101048.75;4787854;30;20043;-78
2022/01/06 16:45:37;;;;;;;9.38;2.92;;;;;;;-3.29;90.16;101052.97;4772999;29;20038;-78
2022/01/06 16:48:04;;;;;;;6.00;3.13;;;;;;;-3.28;90.19;101049.38;4789907;29;20114;-79
2022/01/06 16:50:30;;;;;;;8.60;3.53;;;;;;;-3.33;90.43;101038.34;4810119;29;20031;-83
2022/01/06 16:52:56;;;;;;;6.60;3.25;;;;;;;-3.27;90.67;101044.97;4806723;29;20047;-84
2022/01/06 16:55:22;;;;;;;11.05;2.45;;;;;;;-3.38;90.07;101019.38;4796319;29;20023;-84
2022/01/06 16:57:48;;;;;;;12.68;3.45;;;;;;;-3.43;90.12;101011.81;4810354;29;20022;-85
2022/01/06 17:00:15;;;;;;;10.02;3.33;;;;;;;-3.22;90.36;101050.75;4811920;29;20090;-83